CheckWX is a tool to help pilots better visualize weather data.  It is not intended as a substitute for an official pre-flight weather briefing.

15:53:27 UTC

KCNC METAR
Chariton Municipal Airport
Chariton, Iowa, USA
Current

18 mins ago

KCNC 261535Z AUTO 27008KT 1SM BR OVC003 M03/M03 A2998 RMK AO2
Observed
Jan-26 @ 15:35 UTC
Wind
  • 270° at 8 KTS
Visibility
1 SM
Flight Rules
LIFR
Conditions
Mist
Cloud Levels
  • Overcast at 300' AGL
Temperature
-3°C / 27°F
Dewpoint
-3°C / 27°F
Humidity
100%
Altimeter
29.98" Hg
Pressure
1015.22 hPa
Previous

38 mins ago

KCNC 261515Z AUTO 00000KT 1/2SM FZFG OVC002 M03/M03 A2997 RMK AO2
Observed
Jan-26 @ 15:15 UTC
Visibility
1/2 SM
Flight Rules
LIFR
Conditions
Freezing Fog
Cloud Levels
  • Overcast at 200' AGL
Temperature
-3°C / 27°F
Dewpoint
-3°C / 27°F
Humidity
100%
Altimeter
29.97" Hg
Pressure
1014.92 hPa
Previous

58 mins ago

KCNC 261455Z AUTO 22003KT 1 1/2SM BR OVC003 M04/M04 A2997 RMK AO2
Observed
Jan-26 @ 14:55 UTC
Wind
  • 220° at 3 KTS
Visibility
1 1/2 SM
Flight Rules
LIFR
Conditions
Mist
Cloud Levels
  • Overcast at 300' AGL
Temperature
-4°C / 25°F
Dewpoint
-4°C / 25°F
Humidity
100%
Altimeter
29.97" Hg
Pressure
1014.92 hPa